North Adams, Massachusetts
Current Conditions -  °F | °C
As of 6:52 PM on Thursday 18 Dec 2014 (Local Time) from KAQW Reporting Station
Overcast Overcast  
Wind Chill: 21°   Ceiling: 1700
Heat Index: 32°   Visibility: 10mi
Dew Point: 26°   Wind: 16mph
Humidity: 79%   Direction: 270°W
Pressure: 29.9"   Gusts: 26mph
Location:  42.7°N, 73.11°W
Report Text: KAQW 182352Z AUTO 27014G23KT 10SM OVC017 00/M03 A2990 RMK AO2 PK WND 25029/2336 SLP133 T00001033 10011 20000 50010
Loading
Personal Weather Stations






























Interactive Weather Map New forecast layout! Learn more

10-Day Weather Forecast

Advertisements
Track Severe Weather on mobile